This is the latest recevied weather packets stored in our database for station/object TG5ALY-16. If no packets are shown the sender has not sent any weather packets the latest 10 day(s).
| Time | Temp. | Humidity | Pressure | Rain* | Wind** | Luminosity | Snow |
|---|---|---|---|---|---|---|---|
| 1777864131 | 12.78° C | 97% | 1019 hPa | 0 mm | - | - | - |
| 1777863531 | 12.78° C | 97% | 1019 hPa | 0 mm | - | - | - |
| 1777862930 | 12.22° C | 97% | 1019 hPa | 0 mm | - | - | - |
| 1777862329 | 12.22° C | 97% | 1019 hPa | 0 mm | - | - | - |
| 1777861729 | 12.22° C | 97% | 1019 hPa | 0 mm | - | - | - |
| 1777861128 | 11.67° C | 97% | 1019 hPa | 5.84 mm | - | - | - |
| 1777860527 | 11.67° C | 97% | 1019 hPa | 5.84 mm | - | - | - |
| 1777859927 | 11.67° C | 97% | 1019 hPa | 5.84 mm | - | - | - |
| 1777859326 | 12.22° C | 97% | 1019 hPa | 5.84 mm | - | - | - |
| 1777858725 | 12.22° C | 95% | 1018 hPa | 5.84 mm | - | - | - |
| 1777858125 | 13.33° C | 90% | 1018 hPa | 1.02 mm | - | - | - |
| 1777857524 | 13.33° C | 90% | 1018 hPa | 1.02 mm | - | - | - |
| 1777856924 | 13.33° C | 90% | 1018 hPa | 1.02 mm | - | - | - |
| 1777856323 | 15° C | 89% | 1018 hPa | 0 mm | - | - | - |
| 1777855722 | 14.44° C | 89% | 1018 hPa | 0 mm | - | - | - |
| 1777855122 | 14.44° C | 88% | 1017 hPa | 0 mm | - | - | - |
| 1777854521 | 14.44° C | 86% | 1016 hPa | 0 mm | - | - | - |
| 1777853920 | 14.44° C | 86% | 1016 hPa | 0 mm | - | - | - |
| 1777853320 | 15.56° C | 86% | 1016 hPa | 0.25 mm | - | - | - |
| 1777852719 | 15.56° C | 86% | 1016 hPa | 0 mm | - | - | - |
| 1777852119 | 15.56° C | 84% | 1016 hPa | 0 mm | - | - | - |
| 1777851518 | 15.56° C | 84% | 1016 hPa | 0 mm | - | - | - |
| 1777850917 | 17.78° C | 68% | 1015 hPa | 0.25 mm | - | - | - |
| 1777850317 | 17.78° C | 66% | 1015 hPa | 0 mm | - | - | - |
| 1777849716 | 19.44° C | 58% | 1015 hPa | 0 mm | - | - | - |
* Rain latest hour (hover to see other rain measurements)
** Current wind speed in m/s (hover to see current wind gust speed)